Time;durP1;ratioP1;P1;durP2;ratioP2;P2;SDS_P1;SDS_P2;PMS_P1;PMS_P2;Temp;Humidity;BMP_temperature;BMP_pressure;BME280_temperature;BME280_humidity;BME280_pressure;Samples;Min_cycle;Max_cycle;Signal;HPM_P1;HPM_P2
2022/11/27 00:00:57;;;;;;;29.70;3.22;;;;;;;21.57;65.90;100811.53;7310647;19;129217;-38
2022/11/27 00:03:22;;;;;;;34.90;3.33;;;;;;;21.45;64.41;100783.59;7308835;19;129408;-37
2022/11/27 00:05:53;;;;;;;34.03;3.50;;;;;;;21.44;65.85;100781.09;7314610;19;129202;-38
2022/11/27 00:08:19;;;;;;;47.28;4.10;;;;;;;21.54;65.23;100801.28;7315771;19;130480;-37
2022/11/27 00:10:44;;;;;;;31.40;3.20;;;;;;;21.56;64.34;100796.78;7311788;19;129617;-36
2022/11/27 00:13:10;;;;;;;23.27;2.70;;;;;;;21.46;64.65;100787.91;7316438;19;129098;-35
2022/11/27 00:15:35;;;;;;;39.83;4.30;;;;;;;21.53;65.65;100801.38;7309545;19;130571;-38
2022/11/27 00:18:00;;;;;;;59.13;5.47;;;;;;;21.53;65.04;100801.38;7314505;19;129324;-36
2022/11/27 00:20:25;;;;;;;50.38;4.95;;;;;;;21.52;65.32;100792.69;7311449;19;129022;-38
2022/11/27 00:22:51;;;;;;;21.45;2.75;;;;;;;21.51;64.94;100791.03;7313443;19;129959;-36
2022/11/27 00:25:16;;;;;;;39.25;3.75;;;;;;;21.54;65.46;100790.81;7316439;19;130308;-37
2022/11/27 00:27:42;;;;;;;32.93;3.27;;;;;;;21.52;65.97;100777.00;7314770;19;128948;-38
2022/11/27 00:30:07;;;;;;;41.53;4.30;;;;;;;21.53;65.07;100778.69;7314026;19;129516;-37
2022/11/27 00:32:33;;;;;;;39.00;3.87;;;;;;;21.53;65.68;100788.31;7311906;19;129107;-39
2022/11/27 00:34:58;;;;;;;46.05;3.83;;;;;;;21.52;64.74;100782.22;7314084;19;130288;-36
2022/11/27 00:37:24;;;;;;;27.47;3.17;;;;;;;21.40;65.64;100759.56;7315442;19;129555;-36
2022/11/27 00:39:49;;;;;;;27.30;2.85;;;;;;;21.51;65.13;100780.56;7316216;19;130410;-33
2022/11/27 00:42:15;;;;;;;25.27;2.87;;;;;;;21.42;65.20;100762.91;7311966;19;129612;-35
2022/11/27 00:44:40;;;;;;;38.35;4.15;;;;;;;21.50;66.03;100781.50;7315145;19;131122;-37
2022/11/27 00:47:05;;;;;;;33.80;3.47;;;;;;;21.38;64.92;100764.09;7318157;19;130398;-36
2022/11/27 00:49:31;;;;;;;46.28;4.95;;;;;;;21.43;64.72;100780.28;7312391;19;128912;-36
2022/11/27 00:51:56;;;;;;;46.25;4.50;;;;;;;21.43;65.54;100782.91;7313362;19;131010;-38
2022/11/27 00:54:22;;;;;;;52.35;4.65;;;;;;;21.41;64.40;100786.56;7310052;19;130486;-34
2022/11/27 00:56:47;;;;;;;46.67;4.10;;;;;;;21.37;65.06;100780.72;7309961;19;131466;-38
2022/11/27 00:59:12;;;;;;;49.95;4.72;;;;;;;21.34;64.33;100778.31;7307638;19;130906;-38
2022/11/27 01:01:41;;;;;;;22.20;2.43;;;;;;;21.37;65.45;100778.09;7314785;19;130298;-38
2022/11/27 01:04:09;;;;;;;59.53;5.43;;;;;;;21.35;66.31;100774.78;7311039;19;129296;-35
2022/11/27 01:06:35;;;;;;;27.70;3.05;;;;;;;21.35;65.25;100777.38;7312880;19;129607;-37
2022/11/27 01:09:00;;;;;;;23.45;2.42;;;;;;;21.31;64.42;100765.47;7314867;19;129556;-38
2022/11/27 01:11:28;;;;;;;25.08;2.80;;;;;;;21.34;65.98;100765.22;7311930;19;129718;-37
2022/11/27 01:13:56;;;;;;;62.20;5.63;;;;;;;21.32;64.94;100768.91;7308923;19;130638;-34
2022/11/27 01:16:24;;;;;;;19.88;2.50;;;;;;;21.33;66.02;100766.19;7314734;19;130564;-39
2022/11/27 01:18:52;;;;;;;48.75;4.70;;;;;;;21.30;65.21;100755.09;7315245;19;128833;-38
2022/11/27 01:21:20;;;;;;;42.80;4.05;;;;;;;21.31;66.64;100762.00;7314507;19;129231;-37
2022/11/27 01:23:47;;;;;;;36.83;3.55;;;;;;;21.28;66.02;100752.59;7310374;19;130193;-36
2022/11/27 01:26:13;;;;;;;50.97;4.70;;;;;;;21.31;65.61;100757.63;7313209;19;130408;-36
2022/11/27 01:28:39;;;;;;;20.88;2.40;;;;;;;21.28;65.02;100750.00;7315467;19;129463;-38
2022/11/27 01:31:07;;;;;;;20.38;2.15;;;;;;;21.31;65.81;100744.53;7316233;19;130281;-35
2022/11/27 01:33:33;;;;;;;44.55;3.97;;;;;;;21.29;66.72;100743.81;7310376;19;130711;-37
2022/11/27 01:36:00;;;;;;;29.02;2.95;;;;;;;21.29;65.18;100738.56;7315263;19;130098;-36
2022/11/27 01:38:27;;;;;;;24.85;2.53;;;;;;;21.26;65.55;100733.56;7314109;19;130105;-36
2022/11/27 01:40:58;;;;;;;28.10;3.00;;;;;;;21.25;66.40;100729.28;7313942;19;130236;-39
2022/11/27 01:43:41;;;;;;;39.75;3.45;;;;;;;21.24;66.64;100730.22;7311293;19;131027;-35
2022/11/27 01:46:41;;;;;;;50.70;4.70;;;;;;;21.23;66.11;100732.94;7313441;19;131617;-33
2022/11/27 01:49:09;;;;;;;33.75;3.17;;;;;;;21.22;66.49;100721.63;7313482;19;129333;-36
2022/11/27 01:51:40;;;;;;;29.02;2.83;;;;;;;21.21;66.20;100721.75;7315679;19;130692;-38
2022/11/27 01:54:09;;;;;;;21.45;2.40;;;;;;;21.21;67.25;100719.13;7311035;19;131385;-36
2022/11/27 01:56:37;;;;;;;45.17;4.25;;;;;;;21.23;65.12;100718.09;7314620;19;129616;-38
2022/11/27 01:59:03;;;;;;;22.98;2.40;;;;;;;21.19;65.29;100711.41;7311933;19;130160;-37
2022/11/27 02:01:28;;;;;;;31.38;2.97;;;;;;;21.20;66.61;100712.25;7313594;19;129114;-38
2022/11/27 02:03:57;;;;;;;48.85;4.65;;;;;;;21.11;66.10;100682.34;7312398;19;129304;-38
2022/11/27 02:06:24;;;;;;;27.52;3.00;;;;;;;21.20;65.45;100688.72;7314942;19;129113;-37
2022/11/27 02:08:49;;;;;;;29.95;3.08;;;;;;;21.21;65.77;100693.81;7310625;19;129929;-37
2022/11/27 02:11:40;;;;;;;38.23;3.37;;;;;;;21.19;66.91;100695.72;7314660;19;129819;-35
2022/11/27 02:14:16;;;;;;;49.55;4.47;;;;;;;21.18;66.26;100699.28;7312968;19;129363;-38
2022/11/27 02:17:01;;;;;;;24.00;2.38;;;;;;;21.19;66.21;100695.72;7315300;19;129189;-38
2022/11/27 02:19:43;;;;;;;30.80;2.72;;;;;;;21.13;66.06;100683.09;7313599;19;128993;-36
2022/11/27 02:22:36;;;;;;;10.15;1.50;;;;;;;21.18;66.85;100691.44;7313228;19;130125;-36
2022/11/27 02:25:15;;;;;;;32.47;3.08;;;;;;;21.06;67.14;100660.94;7312481;19;129594;-37
2022/11/27 02:28:05;;;;;;;39.38;4.15;;;;;;;21.16;66.77;100677.63;7315112;19;130317;-35
2022/11/27 02:30:35;;;;;;;27.55;2.75;;;;;;;21.18;65.38;100680.97;7312898;19;129839;-34
2022/11/27 02:33:05;;;;;;;28.15;2.92;;;;;;;21.19;65.57;100682.63;7312341;19;130214;-38
2022/11/27 02:35:54;;;;;;;20.45;2.05;;;;;;;21.19;67.73;100682.63;7313921;19;130332;-37
2022/11/27 02:38:27;;;;;;;28.00;3.00;;;;;;;21.17;66.23;100670.63;7314351;19;129020;-36
2022/11/27 02:41:00;;;;;;;22.08;2.25;;;;;;;21.20;65.96;100681.72;7313561;19;129146;-36
2022/11/27 02:43:39;;;;;;;36.88;3.33;;;;;;;21.16;66.13;100677.63;7310766;19;129737;-38
2022/11/27 02:46:08;;;;;;;35.80;3.42;;;;;;;21.16;65.66;100675.00;7311268;19;131088;-38
2022/11/27 02:48:38;;;;;;;20.13;2.17;;;;;;;21.17;66.14;100684.53;7312469;19;129389;-36
2022/11/27 02:51:05;;;;;;;26.92;2.63;;;;;;;21.16;66.85;100690.72;7311969;19;129453;-37
2022/11/27 02:53:53;;;;;;;21.67;2.30;;;;;;;21.14;67.36;100689.97;7310570;19;129163;-39
2022/11/27 02:56:20;;;;;;;;;;;;;;;21.06;67.47;100668.78;7313929;19;132682;-39
2022/11/27 02:58:48;;;;;;;34.03;3.20;;;;;;;21.16;65.10;100689.88;7311256;19;129376;-34
2022/11/27 03:01:16;;;;;;;19.50;2.05;;;;;;;21.14;66.37;100684.75;7312436;19;128979;-35
2022/11/27 03:03:46;;;;;;;29.67;2.92;;;;;;;21.16;66.45;100682.88;7308840;19;129908;-34
2022/11/27 03:06:20;;;;;;;17.60;2.17;;;;;;;21.15;66.44;100694.28;7312262;19;130344;-37
2022/11/27 03:08:50;;;;;;;36.97;3.53;;;;;;;21.12;64.95;100689.25;7312050;19;129194;-38
2022/11/27 03:11:16;;;;;;;35.70;3.10;;;;;;;21.14;66.59;100689.97;7309020;19;129668;-37
2022/11/27 03:13:46;;;;;;;12.00;1.53;;;;;;;21.14;65.97;100695.22;7309879;19;130909;-37
2022/11/27 03:16:20;;;;;;;20.35;2.17;;;;;;;21.13;67.00;100706.63;7312851;19;129695;-38
2022/11/27 03:19:04;;;;;;;28.58;2.85;;;;;;;21.12;67.26;100704.13;7311943;19;129118;-36
2022/11/27 03:21:36;;;;;;;28.00;2.83;;;;;;;21.11;66.77;100699.81;7310830;19;129541;-38
2022/11/27 03:24:02;;;;;;;43.08;4.10;;;;;;;21.09;65.57;100705.16;7308593;19;130286;-36
2022/11/27 03:26:27;;;;;;;30.20;2.80;;;;;;;21.11;66.10;100700.66;7312493;19;131355;-37
2022/11/27 03:28:55;;;;;;;23.48;2.65;;;;;;;21.13;66.08;100696.16;7311845;19;128763;-36
2022/11/27 03:31:22;;;;;;;14.60;1.98;;;;;;;21.11;65.61;100692.81;7309730;19;129437;-37
2022/11/27 03:33:48;;;;;;;42.35;3.80;;;;;;;21.01;65.74;100672.66;7308353;19;130603;-39
2022/11/27 03:36:17;;;;;;;26.65;2.53;;;;;;;21.05;65.45;100685.41;7314893;19;129988;-38
2022/11/27 03:38:46;;;;;;;19.15;2.30;;;;;;;21.02;65.63;100672.56;7318963;19;128999;-38
2022/11/27 03:41:24;;;;;;;23.77;2.60;;;;;;;21.46;64.34;100688.50;7317014;19;129301;-36
2022/11/27 03:43:54;;;;;;;19.95;2.40;;;;;;;21.87;63.11;100688.91;7315639;19;129236;-36
2022/11/27 03:46:34;;;;;;;27.30;2.60;;;;;;;22.21;61.41;100684.59;7319202;19;129282;-37
2022/11/27 03:49:15;;;;;;;37.63;3.35;;;;;;;22.58;59.79;100679.97;7318698;19;128796;-34
2022/11/27 03:51:47;;;;;;;31.42;2.58;;;;;;;22.76;59.46;100668.03;7316426;19;129215;-35
2022/11/27 03:54:23;;;;;;;23.63;2.53;;;;;;;22.88;59.09;100669.69;7317553;19;129189;-35
2022/11/27 03:56:59;;;;;;;23.00;2.30;;;;;;;23.03;58.63;100671.09;7319731;19;130670;-38
2022/11/27 03:59:29;;;;;;;24.30;2.45;;;;;;;23.15;58.00;100670.13;7317691;19;128928;-36
2022/11/27 04:01:54;;;;;;;43.00;4.03;;;;;;;23.24;58.40;100661.50;7316472;19;128952;-33
2022/11/27 04:04:19;;;;;;;30.17;2.88;;;;;;;23.32;57.43;100658.28;7313469;19;129679;-37
2022/11/27 04:06:45;;;;;;;25.67;2.38;;;;;;;23.35;57.29;100653.63;7317759;19;130369;-37
2022/11/27 04:09:10;;;;;;;27.17;2.70;;;;;;;23.41;57.98;100657.53;7317109;19;129104;-33
2022/11/27 04:11:36;;;;;;;18.27;2.20;;;;;;;23.44;57.46;100655.50;7316307;19;129072;-37
2022/11/27 04:14:01;;;;;;;61.73;5.10;;;;;;;23.39;57.65;100644.53;7315186;19;129205;-37
2022/11/27 04:16:27;;;;;;;20.97;2.13;;;;;;;23.49;57.58;100653.31;7316499;19;129789;-36
2022/11/27 04:18:52;;;;;;;22.25;2.25;;;;;;;23.57;57.46;100656.13;7315204;19;129386;-36
2022/11/27 04:21:18;;;;;;;36.37;3.30;;;;;;;23.57;56.95;100661.38;7315283;19;129068;-35
2022/11/27 04:23:44;;;;;;;24.25;2.38;;;;;;;23.55;57.55;100657.25;7315176;19;129774;-35
2022/11/27 04:26:09;;;;;;;46.37;4.07;;;;;;;23.60;56.99;100661.13;7314537;19;129196;-37
2022/11/27 04:28:34;;;;;;;21.60;2.13;;;;;;;23.54;56.78;100666.06;7314712;19;130280;-37
2022/11/27 04:31:00;;;;;;;40.03;3.33;;;;;;;23.51;56.83;100654.03;7318746;19;129574;-35
2022/11/27 04:33:25;;;;;;;24.57;2.43;;;;;;;23.44;56.94;100663.38;7316059;19;129059;-35
2022/11/27 04:35:51;;;;;;;46.23;4.23;;;;;;;23.36;57.36;100665.78;7316475;19;129584;-33
2022/11/27 04:38:17;;;;;;;33.60;3.03;;;;;;;23.26;57.59;100662.19;7314671;19;130278;-36
2022/11/27 04:40:42;;;;;;;30.92;2.72;;;;;;;23.11;58.21;100653.78;7316759;19;129323;-34
2022/11/27 04:43:08;;;;;;;4.87;1.17;;;;;;;23.08;58.36;100655.81;7316196;19;129036;-37
2022/11/27 04:45:33;;;;;;;18.17;2.05;;;;;;;22.97;59.14;100661.09;7315272;19;129718;-38
2022/11/27 04:47:59;;;;;;;19.20;1.95;;;;;;;22.83;59.38;100663.97;7315508;19;129458;-38
2022/11/27 04:50:24;;;;;;;40.57;3.23;;;;;;;22.75;59.45;100659.34;7316708;19;129388;-35
2022/11/27 04:52:49;;;;;;;20.17;2.10;;;;;;;22.66;59.79;100662.69;7316633;19;129083;-38
2022/11/27 04:55:15;;;;;;;28.85;2.30;;;;;;;22.57;60.35;100660.81;7316025;19;129575;-38
2022/11/27 04:57:41;;;;;;;22.90;2.25;;;;;;;22.46;60.41;100660.75;7316982;19;129293;-38
2022/11/27 05:00:07;;;;;;;39.78;3.42;;;;;;;22.35;60.27;100657.31;7316911;19;128749;-34
2022/11/27 05:02:32;;;;;;;12.50;1.50;;;;;;;22.29;60.67;100657.78;7314859;19;130877;-37
2022/11/27 05:04:58;;;;;;;11.73;1.87;;;;;;;22.22;61.23;100661.81;7315235;19;130365;-39
2022/11/27 05:07:24;;;;;;;28.27;2.53;;;;;;;22.11;61.17;100659.19;7316416;19;129393;-36
2022/11/27 05:09:49;;;;;;;36.83;3.30;;;;;;;22.06;61.79;100661.34;7314573;19;129207;-38
2022/11/27 05:12:15;;;;;;;19.73;2.10;;;;;;;21.98;62.18;100653.22;7316108;19;129547;-37
2022/11/27 05:14:40;;;;;;;18.95;2.08;;;;;;;21.92;62.23;100657.97;7315004;19;129958;-39
2022/11/27 05:17:05;;;;;;;33.70;2.97;;;;;;;21.83;62.25;100656.03;7315187;19;129021;-34
2022/11/27 05:19:31;;;;;;;29.33;2.70;;;;;;;21.80;62.52;100666.75;7316270;19;129573;-38
2022/11/27 05:21:57;;;;;;;27.73;2.47;;;;;;;21.75;63.10;100661.00;7315426;19;129064;-37
2022/11/27 05:24:25;;;;;;;22.13;2.30;;;;;;;21.70;62.85;100670.97;7312772;19;130175;-35
2022/11/27 05:26:51;;;;;;;27.23;2.40;;;;;;;21.68;62.70;100672.03;7312276;19;129258;-37
2022/11/27 05:29:17;;;;;;;17.70;2.10;;;;;;;21.66;63.26;100673.94;7314548;19;130542;-36
2022/11/27 05:31:43;;;;;;;27.08;2.50;;;;;;;21.63;63.74;100666.31;7316103;19;129190;-38
2022/11/27 05:34:09;;;;;;;33.15;3.10;;;;;;;21.56;63.18;100665.09;7313757;19;129692;-38
2022/11/27 05:36:35;;;;;;;47.30;4.20;;;;;;;21.60;63.71;100680.44;7314696;19;129688;-40
2022/11/27 05:39:02;;;;;;;12.93;1.55;;;;;;;21.56;64.10;100675.56;7314486;19;128962;-37
2022/11/27 05:41:28;;;;;;;;;;;;;;;21.56;64.33;100678.19;7315487;19;130289;-36
2022/11/27 05:43:53;;;;;;;38.08;3.60;;;;;;;21.57;63.93;100675.44;7311876;19;129707;-37
2022/11/27 05:46:20;;;;;;;34.35;2.88;;;;;;;21.58;63.39;100677.13;7314586;19;128910;-36
2022/11/27 05:48:46;;;;;;;27.85;2.72;;;;;;;21.54;63.76;100678.28;7315563;19;128976;-38
2022/11/27 05:51:11;;;;;;;35.42;3.45;;;;;;;21.45;63.39;100662.44;7312839;19;130954;-37
2022/11/27 05:53:36;;;;;;;19.98;2.08;;;;;;;21.54;63.55;100678.28;7309530;19;129673;-38
2022/11/27 05:56:10;;;;;;;38.80;3.20;;;;;;;21.57;63.88;100683.28;7312151;19;129276;-38
2022/11/27 05:58:36;;;;;;;27.85;2.53;;;;;;;21.47;63.09;100656.13;7313756;19;129428;-38
2022/11/27 06:01:03;;;;;;;23.80;2.07;;;;;;;21.60;63.27;100663.94;7313536;19;129388;-38
2022/11/27 06:03:28;;;;;;;29.85;3.00;;;;;;;21.57;63.54;100667.59;7311726;19;131108;-37
2022/11/27 06:05:54;;;;;;;26.00;2.35;;;;;;;21.59;63.16;100670.94;7311871;19;129146;-36
2022/11/27 06:08:20;;;;;;;23.60;2.15;;;;;;;21.60;63.64;100669.16;7316220;19;128901;-39
2022/11/27 06:10:46;;;;;;;38.00;3.93;;;;;;;21.65;62.81;100660.00;7313607;19;129126;-35
2022/11/27 06:13:12;;;;;;;24.23;2.33;;;;;;;21.75;62.53;100662.78;7312525;19;130312;-37
2022/11/27 06:15:38;;;;;;;31.70;2.90;;;;;;;21.75;62.42;100660.19;7311769;19;129870;-37
2022/11/27 06:18:04;;;;;;;26.03;2.33;;;;;;;21.83;62.68;100656.03;7314324;19;130322;-37
2022/11/27 06:20:29;;;;;;;33.00;2.88;;;;;;;21.90;62.65;100667.72;7313045;19;129070;-37
2022/11/27 06:22:56;;;;;;;8.80;1.13;;;;;;;21.94;62.22;100663.09;7311839;19;129293;-38
2022/11/27 06:25:21;;;;;;;49.30;4.07;;;;;;;22.02;62.37;100654.66;7312123;19;129632;-37
2022/11/27 06:27:47;;;;;;;27.53;2.57;;;;;;;22.11;61.65;100659.19;7312889;19;129083;-35
2022/11/27 06:30:13;;;;;;;19.37;1.80;;;;;;;22.14;61.41;100651.09;7312191;19;131241;-34
2022/11/27 06:32:38;;;;;;;25.05;2.38;;;;;;;22.14;61.70;100645.88;7310460;19;130291;-36
2022/11/27 06:35:04;;;;;;;46.93;3.63;;;;;;;22.16;61.50;100646.59;7310260;19;129742;-36
2022/11/27 06:37:29;;;;;;;41.00;3.55;;;;;;;22.06;61.30;100629.91;7309728;19;129228;-36
2022/11/27 06:39:55;;;;;;;41.55;3.40;;;;;;;22.07;61.37;100650.75;7309211;19;128994;-38
2022/11/27 06:42:21;;;;;;;41.88;3.20;;;;;;;22.09;61.39;100648.00;7309103;19;131213;-37
2022/11/27 06:44:46;;;;;;;44.20;3.35;;;;;;;21.98;61.86;100636.56;7307211;19;129087;-33
2022/11/27 06:47:11;;;;;;;23.80;2.45;;;;;;;21.98;62.02;100637.53;7309600;19;131170;-39
2022/11/27 06:49:37;;;;;;;20.63;2.13;;;;;;;21.98;61.72;100637.53;7312156;19;129615;-34
2022/11/27 06:52:02;;;;;;;37.10;3.35;;;;;;;22.00;62.24;100640.88;7311272;19;130369;-35
2022/11/27 06:54:28;;;;;;;20.37;1.90;;;;;;;21.98;62.20;100633.94;7313352;19;129119;-37
2022/11/27 06:56:53;;;;;;;49.43;4.27;;;;;;;22.02;61.31;100626.69;7309652;19;129146;-38
2022/11/27 06:59:19;;;;;;;20.30;2.17;;;;;;;22.04;62.11;100631.81;7311528;19;129854;-35
2022/11/27 07:01:45;;;;;;;58.35;4.35;;;;;;;22.09;61.90;100630.50;7307192;19;129545;-39
2022/11/27 07:04:12;;;;;;;26.77;2.38;;;;;;;22.08;61.89;100628.00;7310411;19;129722;-39
2022/11/27 07:06:38;;;;;;;25.98;2.50;;;;;;;22.16;61.20;100626.47;7309992;19;129319;-39
2022/11/27 07:09:04;;;;;;;33.65;3.15;;;;;;;22.11;61.55;100633.84;7305007;19;130122;-37
2022/11/27 07:11:30;;;;;;;31.45;2.75;;;;;;;22.13;61.49;100631.13;7309578;19;129935;-36
2022/11/27 07:13:59;;;;;;;45.00;3.97;;;;;;;22.11;61.79;100633.00;7308571;19;129242;-38
2022/11/27 07:16:25;;;;;;;23.98;2.22;;;;;;;22.09;61.76;100634.91;7312779;19;129166;-35
2022/11/27 07:18:59;;;;;;;15.35;1.70;;;;;;;21.95;61.79;100621.09;7310535;19;132281;-37
2022/11/27 07:21:25;;;;;;;16.95;1.77;;;;;;;21.91;61.73;100610.97;7309559;19;128863;-35
2022/11/27 07:23:50;;;;;;;50.42;4.53;;;;;;;22.02;61.82;100638.94;7305472;19;129411;-35
2022/11/27 07:26:21;;;;;;;23.35;2.33;;;;;;;21.93;61.80;100638.69;7309423;19;128792;-36
2022/11/27 07:28:47;;;;;;;29.75;2.67;;;;;;;21.86;62.63;100644.53;7311628;19;133272;-39
2022/11/27 07:31:15;;;;;;;37.58;3.30;;;;;;;21.83;62.35;100645.56;7310435;19;129522;-38
2022/11/27 07:33:40;;;;;;;40.60;3.25;;;;;;;21.81;62.34;100642.25;7309828;19;128930;-35
2022/11/27 07:36:09;;;;;;;44.85;3.63;;;;;;;21.80;62.27;100640.56;7307551;19;129645;-39
2022/11/27 07:38:35;;;;;;;21.13;1.85;;;;;;;21.76;62.34;100639.16;7309348;19;130991;-37
2022/11/27 07:41:01;;;;;;;23.73;2.35;;;;;;;21.76;62.36;100638.28;7309723;19;130214;-36
2022/11/27 07:43:28;;;;;;;25.42;2.53;;;;;;;21.63;62.97;100627.91;7308704;19;129059;-38
2022/11/27 07:45:53;;;;;;;25.13;2.17;;;;;;;21.74;62.29;100641.00;7309215;19;129541;-38
2022/11/27 07:48:18;;;;;;;33.72;3.08;;;;;;;21.75;63.07;100637.44;7311242;19;129251;-35
2022/11/27 07:50:44;;;;;;;24.08;2.15;;;;;;;21.76;63.21;100633.03;7310009;19;130410;-35
2022/11/27 07:53:09;;;;;;;39.73;3.33;;;;;;;21.76;62.77;100623.44;7308759;19;129251;-38
2022/11/27 07:55:38;;;;;;;24.05;2.25;;;;;;;21.73;62.64;100618.38;7306678;19;130366;-36
2022/11/27 07:58:04;;;;;;;27.85;2.53;;;;;;;21.75;62.39;100610.44;7306768;19;129362;-38
2022/11/27 08:00:29;;;;;;;23.88;2.22;;;;;;;21.70;62.92;100608.16;7310741;19;129317;-37
2022/11/27 08:02:55;;;;;;;19.57;1.87;;;;;;;21.69;63.20;100601.25;7307514;19;129244;-37
2022/11/27 08:05:20;;;;;;;28.40;2.78;;;;;;;21.64;63.38;100603.38;7309441;19;129008;-36
2022/11/27 08:07:45;;;;;;;24.85;2.42;;;;;;;21.60;63.11;100591.47;7308533;19;130298;-36
2022/11/27 08:10:11;;;;;;;31.37;2.73;;;;;;;21.54;63.12;100581.47;7309134;19;129630;-35
2022/11/27 08:12:36;;;;;;;28.50;2.65;;;;;;;21.62;63.08;100594.81;7308670;19;129105;-37
2022/11/27 08:15:04;;;;;;;18.25;1.85;;;;;;;21.61;63.59;100592.31;7310081;19;129036;-37
2022/11/27 08:17:30;;;;;;;23.95;2.35;;;;;;;21.62;63.00;100579.13;7309333;19;130335;-39
2022/11/27 08:19:55;;;;;;;33.35;2.70;;;;;;;21.62;62.75;100584.34;7308774;19;129363;-40
2022/11/27 08:22:20;;;;;;;17.13;1.87;;;;;;;21.65;62.96;100586.72;7312677;19;129028;-35
2022/11/27 08:24:46;;;;;;;23.70;2.25;;;;;;;21.65;62.67;100578.88;7313859;19;129543;-34
2022/11/27 08:27:14;;;;;;;31.92;2.92;;;;;;;21.68;63.24;100578.63;7316215;19;130923;-36
2022/11/27 08:29:40;;;;;;;31.40;2.67;;;;;;;21.75;63.02;100582.47;7315887;19;131119;-39
2022/11/27 08:32:05;;;;;;;22.33;2.08;;;;;;;21.75;63.07;100582.47;7317538;19;130424;-36
2022/11/27 08:34:36;;;;;;;65.88;5.68;;;;;;;21.72;62.37;100574.00;7308149;19;129998;-37
2022/11/27 08:37:04;;;;;;;31.50;2.88;;;;;;;21.73;62.48;100573.88;7309364;19;131090;-32
2022/11/27 08:39:29;;;;;;;56.67;4.40;;;;;;;21.72;63.06;100568.78;7312412;19;132221;-32
2022/11/27 08:41:54;;;;;;;31.08;2.78;;;;;;;21.71;62.47;100582.81;7316147;19;129036;-32
2022/11/27 08:44:20;;;;;;;38.22;3.45;;;;;;;21.70;62.78;100587.22;7309715;19;129853;-34
2022/11/27 08:46:45;;;;;;;13.68;1.52;;;;;;;21.69;63.20;100590.78;7312501;19;130478;-35
2022/11/27 08:49:11;;;;;;;42.97;3.25;;;;;;;21.68;63.15;100589.09;7315702;19;129129;-32
2022/11/27 08:51:36;;;;;;;23.42;2.15;;;;;;;21.73;63.22;100583.53;7312096;19;129298;-37
2022/11/27 08:54:02;;;;;;;38.90;3.67;;;;;;;21.77;62.50;100582.38;7311550;19;129598;-35
2022/11/27 08:56:28;;;;;;;28.75;2.75;;;;;;;21.77;62.74;100583.22;7307673;19;130166;-37
2022/11/27 08:58:53;;;;;;;27.70;2.53;;;;;;;21.81;62.27;100579.44;7314354;19;129719;-34
2022/11/27 09:01:22;;;;;;;32.50;3.15;;;;;;;21.83;62.59;100585.34;7311108;19;129005;-32
2022/11/27 09:03:48;;;;;;;30.00;2.75;;;;;;;21.93;62.06;100591.56;7312900;19;129361;-31
2022/11/27 09:06:16;;;;;;;17.58;1.60;;;;;;;21.89;62.21;100590.16;7313331;19;129107;-35
2022/11/27 09:08:42;;;;;;;46.30;3.80;;;;;;;21.95;62.32;100587.03;7313780;19;130227;-35
2022/11/27 09:11:10;;;;;;;27.57;2.57;;;;;;;21.98;62.27;100586.81;7315098;19;130159;-34
2022/11/27 09:13:36;;;;;;;23.88;2.22;;;;;;;21.84;62.29;100568.72;7312291;19;132608;-33
2022/11/27 09:16:06;;;;;;;18.40;1.75;;;;;;;21.82;61.73;100568.00;7309379;19;129280;-33
2022/11/27 09:18:32;;;;;;;48.38;3.90;;;;;;;21.87;62.55;100583.34;7311671;19;131696;-34
2022/11/27 09:21:04;;;;;;;34.17;3.00;;;;;;;21.85;62.28;100574.78;7314940;19;128926;-32
2022/11/27 09:23:30;;;;;;;31.25;2.78;;;;;;;21.80;61.71;100577.75;7307785;19;129382;-32
2022/11/27 09:25:59;;;;;;;29.50;2.73;;;;;;;21.80;62.20;100580.38;7311493;19;129497;-36
2022/11/27 09:28:25;;;;;;;31.42;2.67;;;;;;;21.70;62.03;100555.00;7314115;19;130378;-36
2022/11/27 09:30:59;;;;;;;29.00;2.37;;;;;;;21.82;62.54;100569.78;7312380;19;129584;-33
2022/11/27 09:33:26;;;;;;;42.05;3.47;;;;;;;21.80;62.56;100556.81;7310711;19;129254;-35
2022/11/27 09:35:52;;;;;;;39.15;3.45;;;;;;;21.85;62.17;100557.28;7311758;19;129323;-33
2022/11/27 09:38:18;;;;;;;17.15;1.63;;;;;;;21.89;61.99;100548.25;7311565;19;131061;-36
2022/11/27 09:40:58;;;;;;;107.13;7.93;;;;;;;21.87;62.31;100537.06;7306885;19;129401;-38
2022/11/27 09:43:30;;;;;;;44.58;3.85;;;;;;;21.93;61.67;100535.75;7306450;19;130069;-39
2022/11/27 09:46:02;;;;;;;45.92;3.97;;;;;;;21.93;61.71;100536.56;7308751;19;130803;-38
2022/11/27 09:48:34;;;;;;;39.78;3.58;;;;;;;21.89;62.45;100524.69;7305328;19;130800;-34
2022/11/27 09:51:04;;;;;;;58.83;5.05;;;;;;;21.90;61.60;100518.50;7302152;19;130119;-36
2022/11/27 09:53:37;;;;;;;53.60;4.57;;;;;;;21.89;61.83;100516.00;7300404;19;131507;-38
2022/11/27 09:56:05;;;;;;;93.82;7.85;;;;;;;21.87;62.27;100515.28;7299073;19;130816;-41
2022/11/27 09:58:42;;;;;;;53.83;4.88;;;;;;;21.79;61.64;100497.56;7302498;19;130365;-37
2022/11/27 10:01:11;;;;;;;44.40;3.95;;;;;;;21.80;62.11;100499.22;7300677;19;129466;-39
2022/11/27 10:03:38;;;;;;;44.05;4.22;;;;;;;21.82;62.36;100492.09;7300067;19;130564;-39
2022/11/27 10:06:04;;;;;;;44.13;3.53;;;;;;;21.82;62.28;100492.09;7307899;19;129435;-39
2022/11/27 10:08:51;;;;;;;20.13;2.28;;;;;;;21.85;62.55;100491.84;7309791;19;131327;-33
2022/11/27 10:11:19;;;;;;;51.17;4.17;;;;;;;21.85;61.76;100491.84;7308484;19;129482;-34
2022/11/27 10:14:03;;;;;;;28.13;2.63;;;;;;;21.90;62.19;100481.84;7308087;19;129098;-36
2022/11/27 10:16:47;;;;;;;32.42;2.97;;;;;;;21.94;62.42;100474.59;7308961;19;130591;-40
2022/11/27 10:19:35;;;;;;;35.00;3.25;;;;;;;21.94;61.93;100471.97;7307862;19;129621;-37
2022/11/27 10:22:03;;;;;;;40.72;3.25;;;;;;;21.82;62.29;100455.44;7310521;19;129355;-38
2022/11/27 10:25:04;;;;;;;82.72;7.00;;;;;;;21.91;62.24;100474.84;7302305;19;130194;-36
2022/11/27 10:27:44;;;;;;;49.28;3.72;;;;;;;21.87;62.37;100474.22;7312608;19;130233;-38
2022/11/27 10:30:19;;;;;;;36.78;3.22;;;;;;;21.84;62.32;100474.47;7309493;19;130518;-37
2022/11/27 10:32:47;;;;;;;55.63;4.40;;;;;;;21.77;62.66;100470.66;7310976;19;128858;-33
2022/11/27 10:35:18;;;;;;;50.42;4.07;;;;;;;21.77;62.43;100468.06;7306172;19;130583;-34
2022/11/27 10:38:01;;;;;;;26.58;2.42;;;;;;;21.75;62.18;100469.91;7312586;19;129506;-39
2022/11/27 10:41:08;;;;;;;28.95;2.67;;;;;;;21.74;62.37;100467.41;7304593;19;129263;-35
2022/11/27 10:43:34;;;;;;;57.22;4.30;;;;;;;21.78;62.30;100474.94;7307942;19;130177;-36
2022/11/27 10:46:15;;;;;;;19.08;1.83;;;;;;;21.82;62.04;100467.69;7302341;19;129447;-38
2022/11/27 10:48:41;;;;;;;29.48;2.45;;;;;;;21.82;62.53;100458.06;7312467;19;129857;-35
2022/11/27 10:51:31;;;;;;;22.23;2.15;;;;;;;21.86;62.61;100450.78;7307320;19;131109;-35
2022/11/27 10:53:59;;;;;;;65.95;5.25;;;;;;;21.88;62.51;100447.09;7307948;19;129412;-38
2022/11/27 10:56:54;;;;;;;38.13;3.55;;;;;;;21.89;62.56;100447.94;7303141;19;130278;-33
2022/11/27 10:59:31;;;;;;;136.02;10.93;;;;;;;21.86;62.69;100446.41;7305634;19;129795;-41
2022/11/27 11:01:57;;;;;;;33.03;2.72;;;;;;;21.86;62.28;100441.16;7309810;19;132057;-36
2022/11/27 11:04:28;;;;;;;36.10;3.10;;;;;;;21.82;62.76;100439.72;7308732;19;129540;-35
2022/11/27 11:06:54;;;;;;;25.30;2.17;;;;;;;21.79;62.70;100445.22;7312656;19;128924;-34
2022/11/27 11:09:27;;;;;;;123.73;10.20;;;;;;;21.74;62.95;100443.88;7305184;19;130276;-38
2022/11/27 11:11:54;;;;;;;31.20;2.75;;;;;;;21.72;62.73;100433.50;7306532;19;129904;-35
2022/11/27 11:14:19;;;;;;;65.88;5.22;;;;;;;21.70;62.64;100435.41;7308864;19;130017;-35
2022/11/27 11:16:45;;;;;;;29.90;2.70;;;;;;;21.61;62.85;100419.59;7304928;19;130436;-36